This is the latest recevied weather packets stored in our database for station/object KE6JJJ-1. If no packets are shown the sender has not sent any weather packets the latest 10 day(s).
| Time | Temp. | Humidity | Pressure | Rain* | Wind** | Luminosity | Snow |
|---|---|---|---|---|---|---|---|
| 1777606503 | 13.33° C | 83% | 1013.8 hPa | 0 mm | - | 0 W/m² | - |
| 1777604704 | 13.33° C | 82% | 1013.6 hPa | 0 mm | - | 0 W/m² | - |
| 1777602903 | 13.89° C | 80% | 1013.3 hPa | 0 mm | - | 21 W/m² | - |
| 1777584904 | 17.78° C | 71% | 1014.4 hPa | 0 mm | - | 847 W/m² | - |
| 1777484104 | 18.33° C | 68% | 1018.8 hPa | 0 mm | - | 737 W/m² | - |
| 1777462503 | 12.22° C | 87% | 1018.4 hPa | 0 mm | - | 0 W/m² | - |
| 1777460704 | 12.78° C | 87% | 1018.6 hPa | 0 mm | - | 0 W/m² | - |
| 1777458903 | 12.78° C | 86% | 1018.7 hPa | 0 mm | - | 0 W/m² | - |
| 1777457104 | 12.78° C | 86% | 1018.4 hPa | 0 mm | - | 0 W/m² | - |
| 1777455303 | 12.78° C | 85% | 1018.5 hPa | 0 mm | - | 0 W/m² | - |
| 1777453503 | 12.78° C | 85% | 1018.9 hPa | 0 mm | - | 0 W/m² | - |
| 1777451704 | 12.78° C | 84% | 1019.5 hPa | 0 mm | - | 0 W/m² | - |
| 1777449903 | 13.33° C | 84% | 1019.1 hPa | 0 mm | - | 0 W/m² | - |
| 1777448103 | 13.33° C | 83% | 1019.2 hPa | 0 mm | - | 0 W/m² | - |
| 1777444503 | 13.33° C | 84% | 1019.1 hPa | 0 mm | - | 0 W/m² | - |
| 1777442703 | 13.33° C | 84% | 1019.1 hPa | 0 mm | - | 0 W/m² | - |
| 1777440903 | 13.89° C | 83% | 1019.2 hPa | 0 mm | - | 0 W/m² | - |
| 1777439103 | 13.89° C | 81% | 1019.1 hPa | 0 mm | - | 0 W/m² | - |
| 1777437304 | 14.44° C | 80% | 1019.2 hPa | 0 mm | - | 0 W/m² | - |
| 1777410338 | 19.44° C | 61% | 1019.6 hPa | 0 mm | - | 888 W/m² | - |
| 1777406708 | 21.11° C | 56% | 1019.9 hPa | 0 mm | - | 921 W/m² | - |
| 1777404903 | 21.67° C | 58% | 1020.2 hPa | 0 mm | - | 907 W/m² | - |
| 1777395904 | 16.67° C | 66% | 1020.5 hPa | 0 mm | - | 657 W/m² | - |
| 1777394106 | 16.67° C | 69% | 1020.5 hPa | 0 mm | - | 650 W/m² | - |
| 1777383304 | 12.22° C | 83% | 1019.2 hPa | 0 mm | - | 16 W/m² | - |
* Rain latest hour (hover to see other rain measurements)
** Current wind speed in m/s (hover to see current wind gust speed)